createdAt,value
2023-04-03T00:01:22.008Z,100.00
2023-04-03T00:04:07.898Z,100.00
2023-04-03T00:06:53.966Z,100.00
2023-04-03T00:09:39.824Z,100.00
2023-04-03T00:12:25.708Z,100.00
2023-04-03T00:15:11.723Z,100.00
2023-04-03T00:17:57.698Z,100.00
2023-04-03T00:20:43.537Z,100.00
2023-04-03T00:23:29.269Z,100.00
2023-04-03T00:26:15.316Z,100.00
2023-04-03T00:29:03.165Z,100.00
2023-04-03T00:31:49.020Z,100.00
2023-04-03T00:34:35.027Z,100.00
2023-04-03T00:37:21.075Z,100.00
2023-04-03T00:40:06.885Z,100.00
2023-04-03T00:42:52.599Z,100.00
2023-04-03T00:45:38.457Z,100.00
2023-04-03T00:48:24.357Z,100.00
2023-04-03T00:51:10.296Z,100.00
2023-04-03T00:53:56.221Z,99.68
2023-04-03T00:56:42.266Z,96.37
2023-04-03T00:59:28.175Z,94.43
2023-04-03T01:02:14.013Z,95.45
2023-04-03T01:04:59.847Z,97.24
2023-04-03T01:07:45.725Z,97.39
2023-04-03T01:10:31.672Z,98.16
2023-04-03T01:13:17.711Z,100.00
2023-04-03T01:16:03.699Z,100.00
2023-04-03T01:18:49.757Z,100.00
2023-04-03T01:21:35.698Z,100.00
2023-04-03T01:24:21.584Z,100.00
2023-04-03T01:27:07.451Z,100.00
2023-04-03T01:29:53.337Z,100.00
2023-04-03T01:32:39.107Z,100.00
2023-04-03T01:35:25.049Z,100.00
2023-04-03T01:38:10.845Z,100.00
2023-04-03T01:40:56.736Z,100.00
2023-04-03T01:43:42.755Z,100.00
2023-04-03T01:46:28.610Z,100.00
2023-04-03T01:49:14.382Z,100.00
2023-04-03T01:52:00.317Z,100.00
2023-04-03T01:54:46.282Z,100.00
2023-04-03T01:57:32.386Z,100.00
2023-04-03T02:00:18.610Z,100.00
2023-04-03T02:03:04.656Z,100.00
2023-04-03T02:05:50.560Z,100.00
2023-04-03T02:08:36.394Z,100.00
2023-04-03T02:11:22.287Z,100.00
2023-04-03T02:14:08.086Z,100.00
2023-04-03T02:16:54.115Z,100.00
2023-04-03T02:19:40.173Z,100.00
2023-04-03T02:22:25.986Z,100.00
2023-04-03T02:25:11.963Z,100.00
2023-04-03T02:27:57.871Z,100.00
2023-04-03T02:30:43.904Z,100.00
2023-04-03T02:33:29.787Z,100.00
2023-04-03T02:36:15.600Z,100.00
2023-04-03T02:39:01.738Z,100.00
2023-04-03T02:41:47.618Z,100.00
2023-04-03T02:44:33.441Z,100.00
2023-04-03T02:47:19.254Z,100.00
2023-04-03T02:50:04.924Z,100.00
2023-04-03T02:52:50.812Z,100.00
2023-04-03T02:55:36.803Z,100.00
2023-04-03T02:58:22.614Z,100.00
2023-04-03T03:01:08.528Z,100.00
2023-04-03T03:03:54.494Z,100.00
2023-04-03T03:06:40.361Z,100.00
2023-04-03T03:09:26.385Z,100.00
2023-04-03T03:12:12.176Z,100.00
2023-04-03T03:14:58.114Z,100.00
2023-04-03T03:17:44.022Z,100.00
2023-04-03T03:20:29.980Z,100.00
2023-04-03T03:23:15.912Z,100.00
2023-04-03T03:26:01.672Z,100.00
2023-04-03T03:28:47.508Z,100.00
2023-04-03T03:31:33.623Z,100.00
2023-04-03T03:34:19.425Z,100.00
2023-04-03T03:37:05.611Z,100.00
2023-04-03T03:39:51.642Z,100.00
2023-04-03T03:42:37.496Z,100.00
2023-04-03T03:45:23.434Z,100.00
2023-04-03T03:48:09.387Z,100.00
2023-04-03T03:50:55.206Z,100.00
2023-04-03T03:53:41.109Z,100.00
2023-04-03T03:56:26.977Z,100.00
2023-04-03T03:59:14.892Z,100.00
2023-04-03T04:02:00.934Z,100.00
2023-04-03T04:04:46.732Z,100.00
2023-04-03T04:07:32.686Z,100.00
2023-04-03T04:10:18.617Z,100.00
2023-04-03T04:13:04.529Z,100.00
2023-04-03T04:15:50.362Z,100.00
2023-04-03T04:18:36.231Z,100.00
2023-04-03T04:21:22.315Z,100.00
2023-04-03T04:24:08.363Z,100.00
2023-04-03T04:26:54.210Z,100.00
2023-04-03T04:29:40.106Z,100.00
2023-04-03T04:32:26.042Z,100.00
2023-04-03T04:35:13.017Z,100.00
2023-04-03T04:38:00.460Z,100.00
2023-04-03T04:40:46.214Z,100.00
2023-04-03T04:43:32.074Z,100.00
2023-04-03T04:46:18.137Z,100.00
2023-04-03T04:49:03.927Z,100.00
2023-04-03T04:51:52.256Z,100.00
2023-04-03T04:54:38.866Z,100.00
2023-04-03T04:57:24.638Z,100.00
2023-04-03T05:00:10.570Z,100.00
2023-04-03T05:02:56.524Z,100.00
2023-04-03T05:05:42.382Z,100.00
2023-04-03T05:08:28.290Z,100.00
2023-04-03T05:11:14.150Z,100.00
2023-04-03T05:14:00.070Z,100.00
2023-04-03T05:16:46.046Z,100.00
2023-04-03T05:19:31.791Z,100.00
2023-04-03T05:22:17.619Z,100.00
2023-04-03T05:25:03.495Z,100.00
2023-04-03T05:27:49.372Z,100.00
2023-04-03T05:30:35.226Z,100.00
2023-04-03T05:33:21.078Z,100.00
2023-04-03T05:36:07.035Z,100.00
2023-04-03T05:38:53.235Z,100.00
2023-04-03T05:41:39.777Z,100.00
2023-04-03T05:44:25.800Z,100.00
2023-04-03T05:47:11.822Z,100.00
2023-04-03T05:49:57.509Z,100.00
2023-04-03T05:52:43.457Z,100.00
2023-04-03T05:55:29.282Z,100.00
2023-04-03T05:58:15.252Z,100.00
2023-04-03T06:01:01.256Z,100.00
2023-04-03T06:03:47.262Z,100.00
2023-04-03T06:06:33.642Z,100.00
2023-04-03T06:09:19.525Z,100.00
2023-04-03T06:12:05.313Z,100.00
2023-04-03T06:14:51.305Z,100.00
2023-04-03T06:17:37.213Z,100.00
2023-04-03T06:20:23.044Z,100.00
2023-04-03T06:23:09.172Z,100.00
2023-04-03T06:25:55.200Z,100.00
2023-04-03T06:28:41.081Z,100.00
2023-04-03T06:31:27.166Z,100.00
2023-04-03T06:34:13.061Z,100.00
2023-04-03T06:36:58.993Z,100.00
2023-04-03T06:39:44.739Z,100.00
2023-04-03T06:42:30.703Z,100.00
2023-04-03T06:45:16.694Z,100.00
2023-04-03T06:48:02.735Z,100.00
2023-04-03T06:50:49.050Z,100.00
2023-04-03T06:53:35.086Z,100.00
2023-04-03T06:56:20.907Z,100.00
2023-04-03T06:59:06.793Z,100.00
2023-04-03T07:01:52.730Z,100.00
2023-04-03T07:04:39.722Z,100.00
2023-04-03T07:07:25.665Z,100.00
2023-04-03T07:10:11.585Z,100.00
2023-04-03T07:12:57.539Z,100.00
2023-04-03T07:15:43.677Z,100.00
2023-04-03T07:18:29.834Z,100.00
2023-04-03T07:21:15.649Z,100.00
2023-04-03T07:24:01.604Z,100.00
2023-04-03T07:26:47.609Z,100.00
2023-04-03T07:29:33.519Z,100.00
2023-04-03T07:32:19.400Z,100.00
2023-04-03T07:35:05.298Z,100.00
2023-04-03T07:37:51.197Z,100.00
2023-04-03T07:40:37.184Z,100.00
2023-04-03T07:43:23.115Z,100.00
2023-04-03T07:46:08.987Z,100.00
2023-04-03T07:48:56.631Z,100.00
2023-04-03T07:51:43.714Z,100.00
2023-04-03T07:54:29.553Z,100.00
2023-04-03T07:57:15.619Z,100.00
2023-04-03T08:00:01.569Z,100.00
2023-04-03T08:02:47.507Z,100.00
2023-04-03T08:05:33.582Z,100.00
2023-04-03T08:08:21.366Z,100.00
2023-04-03T08:11:07.379Z,100.00
2023-04-03T08:13:53.673Z,100.00
2023-04-03T08:16:39.930Z,100.00
2023-04-03T08:19:26.804Z,100.00
2023-04-03T08:22:12.878Z,100.00
2023-04-03T08:24:59.686Z,100.00
2023-04-03T08:27:45.682Z,100.00
2023-04-03T08:30:31.562Z,100.00
2023-04-03T08:33:17.359Z,100.00
2023-04-03T08:36:03.300Z,100.00
2023-04-03T08:38:49.328Z,100.00
2023-04-03T08:41:35.083Z,100.00
2023-04-03T08:44:20.900Z,100.00
2023-04-03T08:47:06.705Z,100.00
2023-04-03T08:49:52.723Z,100.00
2023-04-03T08:52:38.950Z,100.00
2023-04-03T08:55:24.770Z,100.00
2023-04-03T08:58:10.804Z,100.00
2023-04-03T09:00:56.883Z,100.00
2023-04-03T09:03:42.958Z,100.00
2023-04-03T09:06:29.097Z,100.00
2023-04-03T09:09:15.096Z,100.00
2023-04-03T09:12:01.069Z,100.00
2023-04-03T09:14:46.975Z,100.00
2023-04-03T09:17:32.858Z,100.00
2023-04-03T09:20:20.616Z,100.00
2023-04-03T09:23:07.025Z,100.00
2023-04-03T09:25:52.786Z,100.00
2023-04-03T09:28:46.900Z,100.00
2023-04-03T09:31:35.805Z,100.00
2023-04-03T09:34:21.735Z,100.00
2023-04-03T09:37:07.739Z,100.00
2023-04-03T09:39:53.615Z,100.00
2023-04-03T09:45:26.004Z,100.00
2023-04-03T09:48:16.315Z,100.00
2023-04-03T09:51:03.105Z,100.00
2023-04-03T09:53:49.156Z,100.00
2023-04-03T09:56:35.033Z,100.00
2023-04-03T09:59:20.898Z,100.00
2023-04-03T10:02:06.838Z,98.72
2023-04-03T10:05:02.452Z,100.00
2023-04-03T10:08:03.620Z,99.25
2023-04-03T10:10:50.422Z,96.82
2023-04-03T10:13:45.182Z,94.60
2023-04-03T10:16:36.829Z,95.37
2023-04-03T10:19:22.737Z,93.65
2023-04-03T10:22:08.679Z,91.37
2023-04-03T10:24:54.488Z,94.39
2023-04-03T10:27:40.493Z,88.47
2023-04-03T10:30:26.409Z,91.11
2023-04-03T10:33:12.282Z,90.03
2023-04-03T10:35:58.371Z,89.80
2023-04-03T10:38:44.209Z,89.48
2023-04-03T10:41:30.211Z,89.08
2023-04-03T10:44:15.951Z,90.17
2023-04-03T10:47:01.860Z,86.87
2023-04-03T10:49:57.126Z,87.98
2023-04-03T10:52:45.312Z,88.47
2023-04-03T10:55:33.353Z,88.63
2023-04-03T10:58:19.237Z,86.08
2023-04-03T11:01:05.227Z,82.92
2023-04-03T11:03:51.625Z,83.12
2023-04-03T11:06:37.643Z,85.91
2023-04-03T11:09:23.643Z,83.08
2023-04-03T11:12:09.489Z,81.95
2023-04-03T11:14:55.408Z,83.89
2023-04-03T11:17:41.400Z,82.99
2023-04-03T11:20:27.290Z,81.07
2023-04-03T11:23:13.154Z,81.10
2023-04-03T11:25:59.068Z,79.74
2023-04-03T11:28:44.682Z,80.63
2023-04-03T11:31:30.471Z,80.44
2023-04-03T11:34:16.500Z,81.16
2023-04-03T11:37:02.522Z,77.45
2023-04-03T11:39:48.705Z,81.34
2023-04-03T11:42:34.628Z,76.29
2023-04-03T11:45:20.599Z,77.79
2023-04-03T11:48:20.989Z,76.71
2023-04-03T11:51:10.120Z,74.97
2023-04-03T11:53:55.934Z,75.57
2023-04-03T11:56:41.789Z,73.06
2023-04-03T11:59:27.695Z,73.07
2023-04-03T12:02:13.614Z,72.58
2023-04-03T12:04:59.465Z,71.70
2023-04-03T12:07:45.350Z,72.25
2023-04-03T12:10:32.569Z,70.47
2023-04-03T12:13:18.796Z,72.56
2023-04-03T12:16:04.789Z,71.11
2023-04-03T12:18:50.618Z,69.36
2023-04-03T12:21:36.408Z,69.52
2023-04-03T12:24:22.373Z,70.21
2023-04-03T12:27:08.153Z,68.02
2023-04-03T12:29:54.022Z,71.19
2023-04-03T12:32:40.020Z,69.02
2023-04-03T12:35:25.926Z,70.42
2023-04-03T12:38:11.865Z,68.07
2023-04-03T12:40:57.698Z,67.97
2023-04-03T12:43:43.498Z,69.30
2023-04-03T12:46:29.405Z,67.99
2023-04-03T12:49:15.310Z,67.31
2023-04-03T12:52:01.385Z,68.71
2023-04-03T12:54:47.439Z,67.17
2023-04-03T12:57:33.416Z,68.70
2023-04-03T13:00:19.963Z,69.32
2023-04-03T13:03:05.900Z,69.28
2023-04-03T13:05:54.084Z,68.98
2023-04-03T13:08:39.881Z,66.22
2023-04-03T13:11:25.877Z,69.47
2023-04-03T13:14:11.747Z,68.73
2023-04-03T13:16:57.719Z,66.38
2023-04-03T13:19:43.648Z,68.20
2023-04-03T13:22:29.581Z,67.03
2023-04-03T13:25:15.912Z,65.93
2023-04-03T13:28:12.777Z,69.21
2023-04-03T13:31:00.117Z,68.34
2023-04-03T13:33:45.906Z,66.98
2023-04-03T13:36:31.793Z,69.19
2023-04-03T13:39:17.829Z,68.41
2023-04-03T13:42:03.730Z,70.18
2023-04-03T13:44:49.637Z,68.49
2023-04-03T13:47:35.551Z,70.90
2023-04-03T13:50:21.454Z,70.36
2023-04-03T13:53:07.532Z,70.88
2023-04-03T13:55:53.317Z,70.37
2023-04-03T13:58:39.097Z,70.06
2023-04-03T14:01:25.065Z,70.81
2023-04-03T14:04:10.926Z,69.63
2023-04-03T14:06:56.934Z,71.48
2023-04-03T14:09:42.644Z,70.82
2023-04-03T14:12:31.751Z,71.40
2023-04-03T14:15:18.422Z,71.18
2023-04-03T14:18:06.523Z,69.51
2023-04-03T14:20:53.081Z,70.72
2023-04-03T14:23:39.134Z,68.97
2023-04-03T14:26:24.997Z,69.83
2023-04-03T14:29:10.776Z,70.38
2023-04-03T14:32:11.544Z,70.04
2023-04-03T14:35:00.846Z,70.10
2023-04-03T14:37:46.624Z,70.70
2023-04-03T14:40:32.453Z,68.46
2023-04-03T14:43:18.410Z,70.00
2023-04-03T14:46:04.326Z,70.01
2023-04-03T14:48:50.248Z,69.14
2023-04-03T14:51:36.236Z,69.25
2023-04-03T14:54:22.111Z,68.91
2023-04-03T14:57:08.058Z,68.87
2023-04-03T14:59:53.936Z,69.17
2023-04-03T15:02:40.198Z,69.18
2023-04-03T15:05:26.299Z,68.27
2023-04-03T15:08:12.089Z,68.93
2023-04-03T15:10:58.044Z,68.71
2023-04-03T15:13:43.830Z,67.13
2023-04-03T15:16:31.867Z,66.59
2023-04-03T15:19:17.885Z,66.06
2023-04-03T15:22:03.823Z,66.83
2023-04-03T15:24:49.814Z,67.75
2023-04-03T15:27:35.776Z,66.84
2023-04-03T15:30:23.828Z,66.31
2023-04-03T15:33:10.013Z,66.52
2023-04-03T15:36:06.582Z,66.59
2023-04-03T15:38:58.025Z,66.86
2023-04-03T15:41:43.993Z,65.57
2023-04-03T15:44:29.734Z,65.78
2023-04-03T15:47:15.534Z,64.37
2023-04-03T15:50:01.632Z,64.35
2023-04-03T15:52:47.848Z,64.97
2023-04-03T15:55:33.703Z,65.22
2023-04-03T15:58:19.536Z,64.89
2023-04-03T16:01:05.496Z,65.23
2023-04-03T16:03:51.517Z,65.18
2023-04-03T16:06:37.688Z,65.93
2023-04-03T16:09:23.618Z,64.49
2023-04-03T16:12:09.738Z,64.80
2023-04-03T16:14:55.971Z,63.64
2023-04-03T16:17:41.889Z,64.81
2023-04-03T16:20:27.881Z,65.10
2023-04-03T16:23:13.644Z,64.23
2023-04-03T16:25:59.599Z,65.29
2023-04-03T16:28:45.432Z,64.56
2023-04-03T16:31:31.257Z,64.93
2023-04-03T16:34:17.328Z,65.39
2023-04-03T16:37:03.169Z,65.69
2023-04-03T16:39:49.033Z,64.80
2023-04-03T16:42:36.596Z,64.83
2023-04-03T16:45:23.979Z,65.81
2023-04-03T16:48:09.920Z,66.41
2023-04-03T16:50:55.817Z,66.10
2023-04-03T16:53:41.759Z,66.62
2023-04-03T16:56:27.813Z,66.67
2023-04-03T16:59:13.616Z,66.90
2023-04-03T17:01:59.865Z,66.22
2023-04-03T17:04:45.861Z,66.22
2023-04-03T17:07:31.831Z,66.67
2023-04-03T17:10:17.833Z,66.16
2023-04-03T17:13:03.722Z,65.34
2023-04-03T17:15:49.762Z,63.73
2023-04-03T17:18:35.730Z,64.50
2023-04-03T17:21:21.605Z,64.58
2023-04-03T17:24:07.608Z,63.49
2023-04-03T17:26:53.568Z,64.05
2023-04-03T17:29:39.449Z,63.38
2023-04-03T17:32:25.313Z,63.06
2023-04-03T17:35:11.970Z,63.43
2023-04-03T17:37:58.056Z,65.17
2023-04-03T17:40:44.734Z,65.70
2023-04-03T17:43:31.311Z,66.77
2023-04-03T17:46:17.280Z,68.23
2023-04-03T17:49:03.209Z,69.17
2023-04-03T17:51:48.984Z,70.10
2023-04-03T17:54:34.944Z,70.55
2023-04-03T17:57:20.924Z,71.49
2023-04-03T18:00:06.764Z,71.38
2023-04-03T18:02:52.738Z,71.72
2023-04-03T18:05:39.232Z,72.36
2023-04-03T18:08:25.401Z,72.85
2023-04-03T18:11:11.339Z,73.61
2023-04-03T18:13:57.149Z,74.26
2023-04-03T18:16:43.221Z,74.30
2023-04-03T18:19:30.048Z,74.31
2023-04-03T18:22:16.084Z,74.27
2023-04-03T18:25:01.904Z,75.05
2023-04-03T18:27:47.941Z,75.32
2023-04-03T18:30:33.769Z,75.57
2023-04-03T18:33:19.709Z,75.41
2023-04-03T18:36:05.543Z,75.72
2023-04-03T18:38:51.335Z,76.01
2023-04-03T18:41:37.333Z,76.27
2023-04-03T18:44:23.268Z,76.17
2023-04-03T18:47:09.230Z,75.72
2023-04-03T18:49:55.161Z,75.65
2023-04-03T18:52:41.068Z,75.64
2023-04-03T18:55:26.912Z,75.67
2023-04-03T18:58:12.827Z,75.31
2023-04-03T19:00:58.746Z,75.06
2023-04-03T19:03:44.818Z,74.95
2023-04-03T19:06:30.553Z,75.15
2023-04-03T19:09:16.573Z,74.30
2023-04-03T19:12:02.434Z,75.02
2023-04-03T19:14:48.306Z,74.69
2023-04-03T19:17:36.294Z,74.44
2023-04-03T19:20:22.331Z,74.55
2023-04-03T19:23:08.334Z,74.84
2023-04-03T19:25:54.277Z,75.02
2023-04-03T19:28:40.152Z,75.97
2023-04-03T19:31:26.060Z,74.68
2023-04-03T19:34:11.778Z,74.36
2023-04-03T19:36:57.800Z,74.54
2023-04-03T19:39:43.726Z,74.61
2023-04-03T19:42:29.571Z,74.54
2023-04-03T19:45:15.572Z,75.26
2023-04-03T19:48:01.633Z,75.03
2023-04-03T19:50:47.722Z,74.74
2023-04-03T19:53:33.613Z,74.86
2023-04-03T19:56:19.363Z,75.01
2023-04-03T19:59:05.210Z,74.53
2023-04-03T20:01:51.202Z,75.12
2023-04-03T20:04:37.224Z,74.87
2023-04-03T20:07:23.178Z,75.58
2023-04-03T20:10:09.114Z,75.28
2023-04-03T20:12:54.925Z,74.94
2023-04-03T20:15:40.914Z,75.22
2023-04-03T20:18:26.772Z,74.78
2023-04-03T20:21:12.700Z,74.60
2023-04-03T20:23:58.764Z,74.99
2023-04-03T20:26:44.690Z,75.60
2023-04-03T20:29:30.651Z,75.29
2023-04-03T20:32:16.590Z,75.30
2023-04-03T20:35:07.626Z,75.53
2023-04-03T20:37:53.734Z,75.28
2023-04-03T20:40:39.829Z,74.91
2023-04-03T20:43:26.003Z,75.43
2023-04-03T20:46:11.883Z,75.46
2023-04-03T20:48:57.709Z,75.76
2023-04-03T20:51:43.601Z,75.23
2023-04-03T20:54:29.537Z,75.38
2023-04-03T20:57:15.446Z,75.53
2023-04-03T21:00:01.429Z,76.47
2023-04-03T21:02:48.093Z,75.89
2023-04-03T21:05:34.212Z,76.09
2023-04-03T21:08:19.956Z,76.42
2023-04-03T21:11:05.880Z,76.55
2023-04-03T21:13:51.873Z,77.24
2023-04-03T21:16:37.764Z,78.30
2023-04-03T21:19:23.648Z,77.80
2023-04-03T21:22:09.577Z,78.28
2023-04-03T21:24:55.503Z,78.09
2023-04-03T21:27:41.313Z,78.33
2023-04-03T21:30:27.255Z,78.55
2023-04-03T21:33:13.390Z,78.49
2023-04-03T21:35:59.230Z,78.68
2023-04-03T21:38:45.165Z,79.16
2023-04-03T21:41:31.051Z,78.75
2023-04-03T21:44:16.941Z,78.86
2023-04-03T21:47:02.935Z,79.37
2023-04-03T21:49:48.703Z,79.21
2023-04-03T21:52:34.677Z,80.00
2023-04-03T21:55:20.588Z,79.96
2023-04-03T21:58:06.647Z,79.63
2023-04-03T22:00:52.563Z,80.08
2023-04-03T22:03:38.386Z,80.54
2023-04-03T22:06:24.289Z,80.25
2023-04-03T22:09:10.251Z,79.97
2023-04-03T22:11:56.032Z,80.31
2023-04-03T22:14:41.991Z,80.35
2023-04-03T22:17:27.847Z,80.21
2023-04-03T22:20:13.768Z,80.73
2023-04-03T22:22:59.755Z,79.49
2023-04-03T22:25:45.516Z,80.08
2023-04-03T22:31:18.963Z,80.79
2023-04-03T22:34:04.887Z,80.90
2023-04-03T22:36:50.719Z,80.36
2023-04-03T22:39:36.732Z,81.09
2023-04-03T22:42:22.669Z,80.32
2023-04-03T22:45:08.591Z,81.44
2023-04-03T22:47:54.393Z,80.81
2023-04-03T22:50:40.686Z,80.75
2023-04-03T22:53:26.752Z,81.60
2023-04-03T22:56:12.630Z,80.59
2023-04-03T22:58:58.707Z,81.40
2023-04-03T23:01:44.716Z,80.74
2023-04-03T23:04:30.719Z,81.12
2023-04-03T23:07:16.634Z,81.07
2023-04-03T23:10:02.521Z,80.98
2023-04-03T23:12:48.571Z,80.90
2023-04-03T23:15:34.576Z,80.86
2023-04-03T23:18:20.517Z,80.20
2023-04-03T23:21:06.424Z,79.82
2023-04-03T23:23:52.368Z,80.32
2023-04-03T23:26:38.239Z,79.61
2023-04-03T23:29:24.200Z,79.26
2023-04-03T23:32:10.156Z,79.17
2023-04-03T23:34:56.095Z,78.96
2023-04-03T23:37:42.117Z,78.75
2023-04-03T23:40:28.052Z,77.80
2023-04-03T23:43:13.914Z,77.80
2023-04-03T23:45:59.816Z,78.35
2023-04-03T23:48:45.683Z,77.43
2023-04-03T23:51:31.885Z,77.35
2023-04-03T23:54:17.765Z,77.41
2023-04-03T23:57:03.694Z,77.23
2023-04-03T23:59:49.631Z,77.53
